createdAt,value
2019-03-24T12:29:16.824Z,8028.00
2019-03-24T12:30:10.704Z,8956.00
2019-03-24T12:31:10.713Z,7932.00
2019-03-24T12:32:10.673Z,8340.00
2019-03-24T12:33:10.680Z,8632.00
2019-03-24T12:34:10.675Z,9476.00
2019-03-24T12:35:10.646Z,9808.00
2019-03-24T12:36:10.640Z,8108.00
2019-03-24T12:37:10.644Z,8140.00
2019-03-24T12:38:10.625Z,8772.00
2019-03-24T12:39:10.618Z,8212.00
2019-03-24T12:40:10.589Z,9096.00
2019-03-24T12:41:10.598Z,8984.00
2019-03-24T12:42:10.572Z,8788.00
2019-03-24T12:43:18.977Z,9124.00
2019-03-24T12:44:11.583Z,8096.00
2019-03-24T12:45:10.564Z,7884.00
2019-03-24T12:46:10.549Z,7856.00
2019-03-24T12:48:54.764Z,7712.00
2019-03-24T12:49:54.095Z,7608.00
2019-03-24T12:50:55.007Z,7540.00
2019-03-24T12:51:54.121Z,7604.00
2019-03-24T12:52:54.291Z,7724.00
2019-03-24T12:53:54.036Z,7968.00
2019-03-24T12:54:54.162Z,9868.00
2019-03-24T12:55:54.220Z,10028.00
2019-03-24T12:56:54.205Z,9224.00
2019-03-24T12:57:54.084Z,9684.00
2019-03-24T12:58:54.072Z,9612.00
2019-03-24T12:59:53.998Z,7944.00
2019-03-24T13:00:53.957Z,8188.00
2019-03-24T13:01:53.960Z,10488.00
2019-03-24T13:02:53.951Z,10728.00
2019-03-24T13:03:53.957Z,10720.00
2019-03-24T13:04:53.936Z,10372.00
2019-03-24T13:05:53.904Z,10120.00
2019-03-24T13:06:53.906Z,8852.00
2019-03-24T13:07:53.883Z,8780.00
2019-03-24T13:08:53.894Z,9248.00
2019-03-24T13:09:53.897Z,10368.00
2019-03-24T13:10:53.855Z,9664.00
2019-03-24T13:11:53.841Z,8824.00
2019-03-24T13:12:53.832Z,7876.00
2019-03-24T13:13:53.844Z,8092.00
2019-03-24T13:14:53.812Z,8552.00
2019-03-24T13:15:53.810Z,8448.00
2019-03-24T13:16:53.798Z,8480.00
2019-03-24T13:17:53.775Z,7728.00
2019-03-24T13:18:53.778Z,8176.00
2019-03-24T13:19:53.768Z,9476.00
2019-03-24T13:20:53.740Z,8832.00
2019-03-24T13:21:53.782Z,9628.00
2019-03-24T13:22:53.728Z,9536.00
2019-03-24T13:23:53.730Z,8996.00
2019-03-24T13:24:53.701Z,10468.00
2019-03-24T13:25:53.695Z,10232.00
2019-03-24T13:26:53.713Z,9544.00
2019-03-24T13:27:53.681Z,10304.00
2019-03-24T13:28:53.676Z,9952.00
2019-03-24T13:29:53.646Z,10308.00
2019-03-24T13:30:53.636Z,10672.00
2019-03-24T13:31:53.625Z,10336.00
2019-03-24T13:32:53.609Z,11084.00
2019-03-24T13:33:53.655Z,10596.00
2019-03-24T13:34:53.610Z,11088.00
2019-03-24T13:35:53.606Z,10300.00
2019-03-24T13:37:54.585Z,8932.00
2019-03-24T13:38:53.543Z,8964.00
2019-03-24T13:39:53.547Z,9300.00
2019-03-24T13:40:53.539Z,9312.00
2019-03-24T13:41:53.516Z,8740.00
2019-03-24T13:42:53.506Z,8372.00
2019-03-24T13:43:53.496Z,8064.00
2019-03-24T13:44:53.500Z,7852.00
2019-03-24T13:45:53.472Z,7736.00
2019-03-24T13:46:53.490Z,7688.00
2019-03-24T13:47:53.488Z,7528.00
2019-03-24T13:48:53.442Z,7520.00
2019-03-24T13:49:53.449Z,7280.00
2019-03-24T13:50:53.419Z,7136.00
2019-03-24T13:51:53.402Z,7040.00
2019-03-24T13:52:53.411Z,7064.00
2019-03-24T13:53:53.389Z,6868.00
2019-03-24T13:54:53.377Z,6912.00
2019-03-24T13:55:53.382Z,6820.00
2019-03-24T13:56:53.376Z,6672.00
2019-03-24T13:57:53.342Z,6568.00
2019-03-24T13:58:53.341Z,6840.00
2019-03-24T13:59:53.317Z,6548.00
2019-03-24T14:00:53.307Z,6324.00
2019-03-24T14:01:53.316Z,6256.00
2019-03-24T14:02:53.289Z,6228.00
2019-03-24T14:03:53.280Z,6708.00
2019-03-24T14:04:53.289Z,6952.00
2019-03-24T14:05:53.261Z,7564.00
2019-03-24T14:06:53.259Z,7372.00
2019-03-24T14:07:53.237Z,7204.00
2019-03-24T14:08:53.225Z,6600.00
2019-03-24T14:09:53.217Z,6480.00
2019-03-24T14:10:53.251Z,6164.00
2019-03-24T14:11:53.217Z,6120.00
2019-03-24T14:12:53.188Z,6116.00
2019-03-24T14:13:53.199Z,6384.00
2019-03-24T14:14:53.185Z,6236.00
2019-03-24T14:15:53.167Z,6300.00
2019-03-24T14:16:53.179Z,6376.00
2019-03-24T14:17:53.125Z,6324.00
2019-03-24T14:18:53.115Z,6164.00
2019-03-24T14:19:53.106Z,6384.00
2019-03-24T14:20:53.096Z,6340.00
2019-03-24T14:21:53.094Z,5736.00
2019-03-24T14:22:55.239Z,5168.00
2019-03-24T14:23:53.057Z,6224.00
2019-03-24T14:24:53.047Z,6120.00
2019-03-24T14:25:53.117Z,6744.00
2019-03-24T14:26:53.106Z,6712.00
2019-03-24T14:27:53.043Z,6580.00
2019-03-24T14:28:53.011Z,6584.00
2019-03-24T14:29:53.012Z,6556.00
2019-03-24T14:30:52.986Z,6532.00
2019-03-24T14:31:52.970Z,6508.00
2019-03-24T14:32:52.981Z,6456.00
2019-03-24T14:33:52.970Z,6388.00
2019-03-24T14:34:52.943Z,6376.00
2019-03-24T14:35:52.934Z,6324.00
2019-03-24T14:37:00.675Z,6296.00
2019-03-24T14:38:00.249Z,6256.00
2019-03-24T14:39:00.445Z,6232.00
2019-03-24T14:39:52.898Z,6196.00
2019-03-24T14:40:53.586Z,6140.00
2019-03-24T14:41:52.922Z,6104.00
2019-03-24T14:42:52.882Z,6104.00
2019-03-24T14:43:53.214Z,6112.00
2019-03-24T14:44:53.109Z,6072.00
2019-03-24T14:45:52.868Z,6060.00
2019-03-24T14:46:52.818Z,6008.00
2019-03-24T14:47:52.817Z,5968.00
2019-03-24T14:48:52.824Z,5968.00
2019-03-24T14:49:52.774Z,5936.00
2019-03-24T14:50:54.783Z,5936.00
2019-03-24T14:51:52.750Z,5880.00
2019-03-24T14:52:52.756Z,5840.00
2019-03-24T14:53:52.731Z,5844.00
2019-03-24T14:54:52.735Z,5812.00
2019-03-24T14:55:52.735Z,5792.00
2019-03-24T14:56:52.694Z,5796.00
2019-03-24T14:57:52.681Z,5788.00
2019-03-24T14:58:52.670Z,5760.00
2019-03-24T14:59:52.677Z,5744.00
2019-03-24T15:00:52.657Z,5736.00
2019-03-24T15:01:52.673Z,5700.00
2019-03-24T15:02:52.649Z,5672.00
2019-03-24T15:03:52.616Z,5640.00
2019-03-24T15:04:52.623Z,5636.00
2019-03-24T15:05:52.603Z,5616.00
2019-03-24T15:06:52.586Z,5596.00
2019-03-24T15:07:52.588Z,5572.00
2019-03-24T15:08:52.560Z,5552.00
2019-03-24T15:09:52.564Z,5532.00
2019-03-24T15:10:52.538Z,5516.00
2019-03-24T15:11:52.540Z,5496.00
2019-03-24T15:12:52.518Z,5484.00
2019-03-24T15:13:52.527Z,5440.00
2019-03-24T15:14:52.517Z,5420.00
2019-03-24T15:15:52.485Z,5420.00
2019-03-24T15:16:52.471Z,5396.00
2019-03-24T15:17:52.460Z,5384.00
2019-03-24T15:18:52.464Z,5368.00
2019-03-24T15:19:52.455Z,5372.00
2019-03-24T15:20:52.433Z,5328.00
2019-03-24T15:21:52.415Z,5304.00
2019-03-24T15:22:52.409Z,5304.00
2019-03-24T15:23:52.394Z,5272.00
2019-03-24T15:24:52.403Z,5264.00
2019-03-24T15:25:52.376Z,5248.00
2019-03-24T15:26:52.364Z,5224.00
2019-03-24T15:27:52.350Z,5208.00
2019-03-24T15:28:52.341Z,5188.00
2019-03-24T15:29:52.336Z,5164.00
2019-03-24T15:30:52.331Z,5140.00
2019-03-24T15:31:52.309Z,5124.00
2019-03-24T15:32:53.496Z,5096.00
2019-03-24T15:33:52.296Z,5068.00
2019-03-24T15:34:52.269Z,5048.00
2019-03-24T15:35:52.275Z,5032.00
2019-03-24T15:36:52.250Z,5020.00
2019-03-24T15:37:52.247Z,5000.00
2019-03-24T15:38:52.229Z,4976.00
2019-03-24T15:39:52.215Z,4952.00
2019-03-24T15:40:52.221Z,4920.00
2019-03-24T15:41:52.202Z,4892.00
2019-03-24T15:42:52.187Z,4872.00
2019-03-24T15:43:52.171Z,4848.00
2019-03-24T15:44:52.167Z,4832.00
2019-03-24T15:45:52.152Z,4812.00
2019-03-24T15:46:52.166Z,4780.00
2019-03-24T15:47:52.128Z,4752.00
2019-03-24T15:48:52.113Z,4732.00
2019-03-24T15:49:52.102Z,4700.00
2019-03-24T15:50:52.098Z,4668.00
2019-03-24T15:51:52.106Z,4624.00
2019-03-24T15:52:52.072Z,4576.00
2019-03-24T15:53:52.063Z,4528.00
2019-03-24T15:54:52.075Z,4472.00
2019-03-24T15:55:52.054Z,4404.00
2019-03-24T15:56:52.052Z,4324.00
2019-03-24T15:57:52.022Z,4260.00
2019-03-24T15:59:59.209Z,4104.00
2019-03-24T16:00:52.006Z,4040.00
2019-03-24T16:01:51.995Z,4004.00
2019-03-24T16:02:52.044Z,3980.00
2019-03-24T16:03:51.952Z,3964.00
2019-03-24T16:04:51.943Z,3956.00
2019-03-24T16:05:51.950Z,3960.00
2019-03-24T16:06:51.931Z,3952.00
2019-03-24T16:07:51.938Z,3936.00
2019-03-24T16:08:51.903Z,3936.00
2019-03-24T16:09:51.892Z,3924.00
2019-03-24T16:10:51.892Z,3912.00
2019-03-24T16:11:51.867Z,3896.00
2019-03-24T16:12:51.883Z,3888.00
2019-03-24T16:13:51.894Z,3892.00
2019-03-24T16:14:51.839Z,3876.00
2019-03-24T16:15:51.828Z,3872.00
2019-03-24T16:16:51.842Z,3840.00
2019-03-24T16:17:52.037Z,3808.00
2019-03-24T16:18:51.812Z,3776.00
2019-03-24T16:19:51.786Z,3728.00
2019-03-24T16:20:51.778Z,3688.00
2019-03-24T16:21:51.761Z,3632.00
2019-03-24T16:22:51.770Z,3588.00
2019-03-24T16:23:51.756Z,3544.00
2019-03-24T16:24:51.728Z,3512.00
2019-03-24T16:25:51.723Z,3456.00
2019-03-24T16:26:51.712Z,3412.00
2019-03-24T16:27:51.700Z,3372.00
2019-03-24T16:28:51.755Z,3328.00
2019-03-24T16:29:51.695Z,3280.00
2019-03-24T16:30:51.666Z,3228.00
2019-03-24T16:31:51.654Z,3180.00
2019-03-24T16:32:51.644Z,3124.00
2019-03-24T16:33:51.657Z,3068.00
2019-03-24T16:34:51.668Z,3024.00
2019-03-24T16:35:51.629Z,2964.00
2019-03-24T16:36:51.600Z,2908.00
2019-03-24T16:37:51.596Z,2864.00
2019-03-24T16:38:51.586Z,2808.00
2019-03-24T16:39:51.572Z,2752.00
2019-03-24T16:40:51.594Z,2696.00
2019-03-24T16:41:51.546Z,2656.00
2019-03-24T16:42:51.537Z,2612.00
2019-03-24T16:43:51.526Z,2564.00
2019-03-24T16:44:51.536Z,2512.00
2019-03-24T16:45:51.509Z,2456.00
2019-03-24T16:46:51.539Z,2420.00
2019-03-24T16:47:51.525Z,2388.00
2019-03-24T16:48:51.480Z,2364.00
2019-03-24T16:49:51.463Z,2336.00
2019-03-24T16:50:51.477Z,2300.00
2019-03-24T16:51:51.451Z,2264.00
2019-03-24T16:52:51.457Z,2232.00
2019-03-24T16:53:51.435Z,2176.00
2019-03-24T16:54:51.406Z,2132.00
2019-03-24T16:55:51.421Z,2088.00
2019-03-24T16:56:51.383Z,2048.00
2019-03-24T16:57:51.397Z,2004.00
2019-03-24T16:58:51.431Z,1964.00
2019-03-24T16:59:51.354Z,1924.00
2019-03-24T17:00:51.346Z,1872.00
2019-03-24T17:01:51.331Z,1832.00
2019-03-24T17:02:51.335Z,1796.00
2019-03-24T17:03:51.338Z,1764.00
2019-03-24T17:04:51.306Z,1732.00
2019-03-24T17:05:51.297Z,1700.00
2019-03-24T17:06:51.280Z,1672.00
2019-03-24T17:07:51.283Z,1640.00
2019-03-24T17:08:51.271Z,1608.00
2019-03-24T17:09:51.276Z,1576.00
2019-03-24T17:10:51.249Z,1544.00
2019-03-24T17:11:51.285Z,1512.00
2019-03-24T17:12:51.266Z,1480.00
2019-03-24T17:13:51.198Z,1444.00
2019-03-24T17:14:51.225Z,1408.00
2019-03-24T17:15:51.180Z,1372.00
2019-03-24T17:16:51.181Z,1340.00
2019-03-24T17:17:51.161Z,1304.00
2019-03-24T17:18:51.170Z,1268.00
2019-03-24T17:19:51.139Z,1228.00
2019-03-24T17:20:51.154Z,1192.00
2019-03-24T17:21:51.111Z,1156.00
2019-03-24T17:22:51.137Z,1120.00
2019-03-24T17:23:51.096Z,1080.00
2019-03-24T17:24:51.086Z,1040.00
2019-03-24T17:25:51.091Z,1004.00
2019-03-24T17:26:51.066Z,964.00
2019-03-24T17:27:51.049Z,928.00
2019-03-24T17:28:51.069Z,888.00
2019-03-24T17:29:51.031Z,848.00
2019-03-24T17:30:51.018Z,808.00
2019-03-24T17:31:51.126Z,772.00
2019-03-24T17:32:50.998Z,736.00
2019-03-24T17:33:50.981Z,692.00
2019-03-24T17:34:51.110Z,656.00
2019-03-24T17:35:51.004Z,620.00
2019-03-24T17:36:50.967Z,580.00
2019-03-24T17:37:50.944Z,548.00
2019-03-24T17:38:50.944Z,512.00
2019-03-24T17:39:50.944Z,476.00
2019-03-24T17:40:50.922Z,440.00
2019-03-24T17:41:50.918Z,412.00
2019-03-24T17:42:50.917Z,376.00
2019-03-24T17:43:50.882Z,352.00
2019-03-24T17:44:50.867Z,320.00
2019-03-24T17:45:50.866Z,292.00
2019-03-24T17:46:50.841Z,268.00
2019-03-24T17:47:50.856Z,240.00
2019-03-24T17:48:50.819Z,220.00
2019-03-24T17:49:50.814Z,200.00
2019-03-24T17:50:50.861Z,176.00
2019-03-24T17:52:00.377Z,160.00
2019-03-24T17:52:51.807Z,140.00
2019-03-24T17:53:50.810Z,124.00
2019-03-24T17:54:50.756Z,112.00
2019-03-24T17:55:50.762Z,96.00
2019-03-24T17:56:50.753Z,84.00
2019-03-24T17:57:50.736Z,72.00
2019-03-24T17:58:50.711Z,64.00
2019-03-24T17:59:50.737Z,56.00
2019-03-24T18:00:50.732Z,48.00
2019-03-24T18:01:50.684Z,40.00
2019-03-24T18:02:50.670Z,32.00
2019-03-24T18:03:50.660Z,28.00
2019-03-24T18:04:50.655Z,24.00
2019-03-24T18:05:50.673Z,20.00
2019-03-24T18:06:50.647Z,16.00
2019-03-24T18:07:50.615Z,12.00
2019-03-24T18:08:50.603Z,12.00
2019-03-24T18:09:50.599Z,12.00
2019-03-24T18:10:50.600Z,8.00
2019-03-24T18:11:50.622Z,8.00
2019-03-24T18:12:50.560Z,4.00
2019-03-24T18:13:50.557Z,8.00
2019-03-24T18:14:50.540Z,4.00
2019-03-24T18:15:50.534Z,4.00
2019-03-24T18:16:51.660Z,4.00
2019-03-24T18:17:50.717Z,0.00
2019-03-24T18:18:50.513Z,4.00
2019-03-24T18:19:50.488Z,4.00
2019-03-24T18:20:50.499Z,0.00
2019-03-24T18:21:50.483Z,0.00
2019-03-24T18:22:50.454Z,0.00
2019-03-24T18:23:50.462Z,0.00
2019-03-24T18:24:50.434Z,0.00
2019-03-24T18:25:50.433Z,0.00
2019-03-24T18:26:50.424Z,0.00
2019-03-24T18:27:50.405Z,0.00
2019-03-24T18:28:50.430Z,0.00
2019-03-24T18:29:50.374Z,0.00
2019-03-24T18:30:50.375Z,0.00
2019-03-24T18:31:50.371Z,0.00
2019-03-24T18:32:50.350Z,0.00
2019-03-24T18:33:50.336Z,0.00
2019-03-24T18:34:50.338Z,0.00
2019-03-24T18:35:50.316Z,0.00
2019-03-24T18:36:50.326Z,0.00
2019-03-24T18:37:50.288Z,0.00
2019-03-24T18:38:50.281Z,0.00
2019-03-24T18:39:50.271Z,0.00
2019-03-24T18:40:50.278Z,0.00
2019-03-24T18:41:50.253Z,0.00
2019-03-24T18:42:50.266Z,0.00
2019-03-24T18:43:50.227Z,0.00
2019-03-24T18:44:50.244Z,0.00
2019-03-24T18:45:50.207Z,0.00
2019-03-24T18:46:50.215Z,0.00
2019-03-24T18:47:50.185Z,0.00
2019-03-24T18:48:50.191Z,0.00
2019-03-24T18:49:51.535Z,0.00
2019-03-24T18:50:50.180Z,0.00
2019-03-24T18:51:50.144Z,0.00
2019-03-24T18:52:50.318Z,0.00
2019-03-24T18:53:50.139Z,0.00
2019-03-24T18:54:50.110Z,0.00
2019-03-24T18:55:50.253Z,0.00
2019-03-24T18:56:50.092Z,0.00
2019-03-24T18:57:50.090Z,0.00
2019-03-24T18:58:50.280Z,0.00
2019-03-24T18:59:50.065Z,0.00
2019-03-24T19:00:51.335Z,0.00
2019-03-24T19:01:50.040Z,0.00
2019-03-24T19:02:57.249Z,0.00
2019-03-24T19:04:51.062Z,0.00
2019-03-24T19:05:58.060Z,0.00
2019-03-24T19:06:56.701Z,0.00
2019-03-24T19:07:50.027Z,0.00
2019-03-24T19:10:27.052Z,0.00
2019-03-24T19:11:42.057Z,0.00
2019-03-24T19:12:21.490Z,0.00
2019-03-24T19:13:20.659Z,0.00
2019-03-24T19:14:26.914Z,0.00
2019-03-24T19:15:46.448Z,0.00
2019-03-24T19:16:19.759Z,0.00
2019-03-24T19:17:21.161Z,0.00
2019-03-24T19:18:20.128Z,0.00
2019-03-24T19:19:20.497Z,0.00
2019-03-24T19:20:20.082Z,0.00
2019-03-24T19:21:21.062Z,0.00
2019-03-24T19:22:33.085Z,0.00
2019-03-24T19:24:55.716Z,0.00
2019-03-24T19:26:00.499Z,0.00
2019-03-24T19:26:59.154Z,0.00
2019-03-24T19:27:59.157Z,0.00
2019-03-24T19:28:53.197Z,0.00
2019-03-24T19:29:52.405Z,0.00
2019-03-24T19:30:53.158Z,0.00
2019-03-24T19:31:59.615Z,0.00
2019-03-24T19:32:53.270Z,0.00
2019-03-24T19:33:59.476Z,0.00
2019-03-24T19:34:54.165Z,0.00
2019-03-24T19:35:52.862Z,0.00
2019-03-24T19:36:53.256Z,0.00
2019-03-24T19:37:52.269Z,0.00
2019-03-24T19:38:52.268Z,0.00
2019-03-24T19:39:52.254Z,0.00
2019-03-24T19:40:52.252Z,0.00
2019-03-24T19:41:52.215Z,0.00
2019-03-24T19:42:52.210Z,0.00
2019-03-24T19:43:52.215Z,0.00
2019-03-24T19:44:52.233Z,0.00
2019-03-24T19:45:52.181Z,0.00
2019-03-24T19:46:52.166Z,0.00
2019-03-24T19:47:52.167Z,0.00
2019-03-24T19:48:52.163Z,0.00
2019-03-24T19:49:52.139Z,0.00
2019-03-24T19:50:52.145Z,0.00
2019-03-24T19:51:52.112Z,0.00
2019-03-24T19:52:52.104Z,0.00
2019-03-24T19:53:52.088Z,0.00
2019-03-24T19:54:52.089Z,0.00
2019-03-24T19:55:52.084Z,0.00
2019-03-24T19:56:52.054Z,0.00
2019-03-24T19:57:52.052Z,0.00
2019-03-24T19:58:52.039Z,0.00
2019-03-24T19:59:52.026Z,0.00
2019-03-24T20:00:52.101Z,0.00
2019-03-24T20:01:52.030Z,0.00
2019-03-24T20:02:51.994Z,0.00
2019-03-24T20:03:51.987Z,0.00
2019-03-24T20:04:51.983Z,0.00
2019-03-24T20:05:51.973Z,0.00
2019-03-24T20:06:51.989Z,0.00
2019-03-24T20:07:51.941Z,0.00
2019-03-24T20:08:51.928Z,0.00
2019-03-24T20:09:52.034Z,0.00
2019-03-24T20:10:51.932Z,0.00
2019-03-24T20:11:52.000Z,0.00
2019-03-24T20:12:51.915Z,0.00
2019-03-24T20:13:52.603Z,0.00
2019-03-24T20:14:53.603Z,0.00
2019-03-24T20:15:51.873Z,0.00
2019-03-24T20:16:51.874Z,0.00
2019-03-24T20:17:51.848Z,0.00
2019-03-24T20:18:51.827Z,0.00
2019-03-24T20:19:51.814Z,0.00
2019-03-24T20:20:52.229Z,0.00
2019-03-24T20:21:51.799Z,0.00
2019-03-24T20:22:56.491Z,0.00
2019-03-24T20:23:52.774Z,0.00
2019-03-24T20:24:51.766Z,0.00
2019-03-24T20:25:51.764Z,0.00
2019-03-24T20:26:51.740Z,0.00
2019-03-24T20:27:51.732Z,0.00
2019-03-24T20:28:51.733Z,0.00
2019-03-24T20:29:51.720Z,0.00
2019-03-24T20:30:51.711Z,0.00
2019-03-24T20:31:51.706Z,0.00
2019-03-24T20:32:51.681Z,0.00
2019-03-24T20:33:51.682Z,0.00
2019-03-24T20:34:51.670Z,0.00
2019-03-24T20:35:51.646Z,0.00
2019-03-24T20:36:51.640Z,0.00
2019-03-24T20:37:51.639Z,0.00
2019-03-24T20:38:51.681Z,0.00
2019-03-24T20:39:51.626Z,0.00
2019-03-24T20:40:51.597Z,0.00
2019-03-24T20:41:51.587Z,0.00
2019-03-24T20:42:51.591Z,0.00
2019-03-24T20:43:51.579Z,0.00
2019-03-24T20:44:51.555Z,0.00
2019-03-24T20:45:51.554Z,0.00
2019-03-24T20:46:51.545Z,0.00
2019-03-24T20:47:51.521Z,0.00
2019-03-24T20:48:51.505Z,0.00
2019-03-24T20:49:51.522Z,0.00
2019-03-24T20:50:51.510Z,0.00
2019-03-24T20:51:51.482Z,0.00
2019-03-24T20:52:51.462Z,0.00
2019-03-24T20:53:51.458Z,0.00
2019-03-24T20:54:51.448Z,0.00
2019-03-24T20:55:51.450Z,0.00
2019-03-24T20:56:51.446Z,0.00
2019-03-24T20:57:51.666Z,0.00
2019-03-24T20:58:51.401Z,0.00
2019-03-24T20:59:52.210Z,0.00
2019-03-24T21:00:51.378Z,0.00
2019-03-24T21:01:51.408Z,0.00
2019-03-24T21:02:51.358Z,0.00
2019-03-24T21:03:51.355Z,0.00
2019-03-24T21:04:51.340Z,0.00
2019-03-24T21:05:51.324Z,0.00
2019-03-24T21:06:51.341Z,0.00
2019-03-24T21:07:51.325Z,0.00
2019-03-24T21:08:51.302Z,0.00
2019-03-24T21:09:51.283Z,0.00
2019-03-24T21:10:51.272Z,0.00
2019-03-24T21:11:51.259Z,0.00
2019-03-24T21:12:51.263Z,0.00
2019-03-24T21:13:51.251Z,0.00
2019-03-24T21:14:51.235Z,0.00
2019-03-24T21:15:51.222Z,0.00
2019-03-24T21:16:51.211Z,0.00
2019-03-24T21:17:51.209Z,0.00
2019-03-24T21:18:51.319Z,0.00
2019-03-24T21:19:51.195Z,0.00
2019-03-24T21:20:51.166Z,0.00
2019-03-24T21:21:51.157Z,0.00
2019-03-24T21:22:51.146Z,0.00
2019-03-24T21:23:51.130Z,0.00
2019-03-24T21:24:51.137Z,0.00
2019-03-24T21:25:51.116Z,0.00
2019-03-24T21:26:51.180Z,0.00
2019-03-24T21:27:51.098Z,0.00
2019-03-24T21:28:51.083Z,0.00
2019-03-24T21:29:51.069Z,0.00
2019-03-24T21:30:51.069Z,0.00
2019-03-24T21:31:51.097Z,0.00
2019-03-24T21:32:51.634Z,0.00
2019-03-24T21:33:51.029Z,0.00
2019-03-24T21:34:51.034Z,0.00
2019-03-24T21:35:51.030Z,0.00
2019-03-24T21:36:50.996Z,0.00
2019-03-24T21:37:51.009Z,0.00
2019-03-24T21:38:50.972Z,0.00
2019-03-24T21:39:50.959Z,0.00
2019-03-24T21:40:51.122Z,0.00
2019-03-24T21:41:50.957Z,0.00
2019-03-24T21:42:50.938Z,0.00
2019-03-24T21:43:50.911Z,0.00
2019-03-24T21:44:50.917Z,0.00
2019-03-24T21:45:51.138Z,0.00
2019-03-24T21:46:50.885Z,0.00
2019-03-24T21:47:50.881Z,0.00
2019-03-24T21:48:50.880Z,0.00
2019-03-24T21:49:50.851Z,0.00
2019-03-24T21:50:50.850Z,0.00
2019-03-24T21:51:50.840Z,0.00
2019-03-24T21:52:50.817Z,0.00
2019-03-24T21:53:50.822Z,0.00
2019-03-24T21:54:50.826Z,0.00
2019-03-24T21:55:50.784Z,0.00
2019-03-24T21:56:50.772Z,0.00
2019-03-24T21:57:57.323Z,0.00
2019-03-24T21:58:51.769Z,0.00
2019-03-24T21:59:50.760Z,0.00
2019-03-24T22:00:50.757Z,0.00
2019-03-24T22:01:50.717Z,0.00
2019-03-24T22:02:50.711Z,0.00
2019-03-24T22:03:50.714Z,0.00
2019-03-24T22:04:50.694Z,0.00
2019-03-24T22:05:50.706Z,0.00
2019-03-24T22:06:50.747Z,0.00
2019-03-24T22:07:52.718Z,0.00
2019-03-24T22:08:52.175Z,0.00
2019-03-24T22:09:53.058Z,0.00
2019-03-24T22:10:51.633Z,0.00
2019-03-24T22:11:50.644Z,0.00
2019-03-24T22:12:50.610Z,0.00
2019-03-24T22:13:50.597Z,0.00
2019-03-24T22:14:51.557Z,0.00
2019-03-24T22:15:50.576Z,0.00
2019-03-24T22:16:50.580Z,0.00
2019-03-24T22:17:50.834Z,0.00
2019-03-24T22:18:50.552Z,0.00
2019-03-24T22:19:50.541Z,0.00
2019-03-24T22:20:50.542Z,0.00
2019-03-24T22:21:50.725Z,0.00
2019-03-24T22:22:53.614Z,0.00
2019-03-24T22:23:52.993Z,0.00
2019-03-24T22:24:51.086Z,0.00
2019-03-24T22:25:53.535Z,0.00
2019-03-24T22:26:50.649Z,0.00
2019-03-24T22:27:51.135Z,0.00
2019-03-24T22:28:52.041Z,0.00
2019-03-24T22:29:50.443Z,0.00
2019-03-24T22:30:50.422Z,0.00
2019-03-24T22:31:50.413Z,0.00
2019-03-24T22:32:50.424Z,0.00
2019-03-24T23:18:34.501Z,0.00
2019-03-24T23:19:34.278Z,0.00
2019-03-24T23:30:04.166Z,0.00
2019-03-24T23:31:04.121Z,0.00
